Time,TemperatureF,DewpointF,PressureIn,WindDirection,WindDirectionDegrees,WindSpeedMPH,WindSpeedGustMPH,Humidity,HourlyPrecipIn,Conditions,Clouds,dailyrainin,SolarRadiationWatts/m^2,SoftwareType,DateUTC
2013-06-23 00:02:00,62.0,45.0,-100.00,West,269,13.0,25.0,53,0.00,,,0.00,0.000000,,2013-06-23 07:02:00,
2013-06-23 00:34:00,62.0,45.0,-100.00,West,269,13.0,25.0,53,0.00,,,0.00,0.000000,,2013-06-23 07:34:00,
2013-06-23 00:43:00,62.0,45.0,-100.00,West,269,13.0,25.0,53,0.00,,,0.00,0.000000,,2013-06-23 07:43:00,
2013-06-23 00:53:00,62.0,45.0,-100.00,West,269,13.0,25.0,53,0.00,,,0.00,0.000000,,2013-06-23 07:53:00,
2013-06-23 01:02:00,60.0,45.0,-100.00,West,264,12.0,23.0,58,0.00,,,0.00,0.000000,,2013-06-23 08:02:00,
2013-06-23 01:34:00,60.0,45.0,-100.00,West,264,12.0,23.0,58,0.00,,,0.00,0.000000,,2013-06-23 08:34:00,
2013-06-23 01:43:00,60.0,45.0,-100.00,West,264,12.0,23.0,58,0.00,,,0.00,0.000000,,2013-06-23 08:43:00,
2013-06-23 01:53:00,60.0,45.0,-100.00,West,264,12.0,23.0,58,0.00,,,0.00,0.000000,,2013-06-23 08:53:00,
2013-06-23 02:02:00,57.0,47.0,-100.00,West,264,12.0,25.0,70,0.00,,,-99.99,0.000000,,2013-06-23 09:02:00,
2013-06-23 02:22:00,57.0,47.0,-100.00,West,264,12.0,25.0,70,0.00,,,-99.99,0.000000,,2013-06-23 09:22:00,
2013-06-23 02:34:00,57.0,47.0,-100.00,West,264,12.0,25.0,70,0.00,,,-99.99,0.000000,,2013-06-23 09:34:00,
2013-06-23 02:43:00,57.0,47.0,-100.00,West,264,12.0,25.0,70,0.00,,,-99.99,0.000000,,2013-06-23 09:43:00,
2013-06-23 02:53:00,57.0,47.0,-100.00,West,264,12.0,25.0,70,0.00,,,-99.99,0.000000,,2013-06-23 09:53:00,
2013-06-23 03:34:00,51.0,50.0,-100.00,West,260,14.0,34.0,98,0.00,,,0.00,0.000000,,2013-06-23 10:34:00,
2013-06-23 03:43:00,51.0,50.0,-100.00,West,260,14.0,34.0,98,0.00,,,0.00,0.000000,,2013-06-23 10:43:00,
2013-06-23 03:53:00,51.0,50.0,-100.00,West,260,14.0,34.0,98,0.00,,,0.00,0.000000,,2013-06-23 10:53:00,
2013-06-23 04:01:00,51.0,50.0,-100.00,West,260,14.0,34.0,98,0.00,,,0.00,0.000000,,2013-06-23 11:01:00,
2013-06-23 04:22:00,52.0,52.0,-100.00,West,262,16.0,29.0,99,0.00,,,0.00,0.000000,,2013-06-23 11:22:00,
2013-06-23 04:33:00,52.0,52.0,-100.00,West,262,16.0,29.0,99,0.00,,,0.00,0.000000,,2013-06-23 11:33:00,
2013-06-23 04:43:00,52.0,52.0,-100.00,West,262,16.0,29.0,99,0.00,,,0.00,0.000000,,2013-06-23 11:43:00,
2013-06-23 04:53:00,52.0,52.0,-100.00,West,262,16.0,29.0,99,0.00,,,0.00,0.000000,,2013-06-23 11:53:00,
2013-06-23 05:01:00,52.0,52.0,-100.00,West,262,16.0,29.0,99,0.00,,,0.00,0.000000,,2013-06-23 12:01:00,
2013-06-23 05:33:00,51.0,51.0,-100.00,West,260,16.0,33.0,99,0.00,,,0.00,0.000000,,2013-06-23 12:33:00,
2013-06-23 05:43:00,51.0,51.0,-100.00,West,260,16.0,33.0,99,0.00,,,0.00,0.000000,,2013-06-23 12:43:00,
2013-06-23 05:53:00,51.0,51.0,-100.00,West,260,16.0,33.0,99,0.00,,,0.00,0.000000,,2013-06-23 12:53:00,
2013-06-23 06:01:00,51.0,51.0,-100.00,West,260,16.0,33.0,99,0.00,,,0.00,0.000000,,2013-06-23 13:01:00,
2013-06-23 06:02:00,51.0,51.0,-100.00,WSW,254,17.0,39.0,100,0.00,,,0.00,5.000000,,2013-06-23 13:02:00,
2013-06-23 06:34:00,51.0,51.0,-100.00,WSW,254,17.0,39.0,100,0.00,,,0.00,5.000000,,2013-06-23 13:34:00,
2013-06-23 06:43:00,51.0,51.0,-100.00,WSW,254,17.0,39.0,100,0.00,,,0.00,5.000000,,2013-06-23 13:43:00,
2013-06-23 06:54:00,51.0,51.0,-100.00,WSW,254,17.0,39.0,100,0.00,,,0.00,5.000000,,2013-06-23 13:54:00,
2013-06-23 07:02:00,52.0,52.0,-100.00,West,259,18.0,35.0,100,0.00,,,0.00,45.000000,,2013-06-23 14:02:00,
2013-06-23 07:34:00,52.0,52.0,-100.00,West,259,18.0,35.0,100,0.00,,,0.00,45.000000,,2013-06-23 14:34:00,
2013-06-23 07:44:00,52.0,52.0,-100.00,West,259,18.0,35.0,100,0.00,,,0.00,45.000000,,2013-06-23 14:44:00,
2013-06-23 07:52:00,52.0,52.0,-100.00,West,259,18.0,35.0,100,0.00,,,0.00,45.000000,,2013-06-23 14:52:00,
2013-06-23 08:02:00,53.0,53.0,-100.00,West,261,16.0,34.0,100,0.00,,,0.00,87.000000,,2013-06-23 15:02:00,
2013-06-23 08:35:00,53.0,53.0,-100.00,West,261,16.0,34.0,100,0.00,,,0.00,87.000000,,2013-06-23 15:35:00,
2013-06-23 08:43:00,53.0,53.0,-100.00,West,261,16.0,34.0,100,0.00,,,0.00,87.000000,,2013-06-23 15:43:00,
2013-06-23 08:52:00,53.0,53.0,-100.00,West,261,16.0,34.0,100,0.00,,,0.00,87.000000,,2013-06-23 15:52:00,
2013-06-23 09:02:00,53.0,53.0,-100.00,WSW,252,15.0,34.0,100,0.00,,,0.00,147.000000,,2013-06-23 16:02:00,
2013-06-23 09:36:00,53.0,53.0,-100.00,WSW,252,15.0,34.0,100,0.00,,,0.00,147.000000,,2013-06-23 16:36:00,
2013-06-23 09:43:00,53.0,53.0,-100.00,WSW,252,15.0,34.0,100,0.00,,,0.00,147.000000,,2013-06-23 16:43:00,
2013-06-23 09:53:00,53.0,53.0,-100.00,WSW,252,15.0,34.0,100,0.00,,,0.00,147.000000,,2013-06-23 16:53:00,
2013-06-23 10:22:00,54.0,54.0,-100.00,WSW,255,13.0,29.0,100,0.00,,,0.00,251.000000,,2013-06-23 17:22:00,
2013-06-23 10:33:00,54.0,54.0,-100.00,WSW,255,13.0,29.0,100,0.00,,,0.00,251.000000,,2013-06-23 17:33:00,
2013-06-23 10:43:00,54.0,54.0,-100.00,WSW,255,13.0,29.0,100,0.00,,,0.00,251.000000,,2013-06-23 17:43:00,
2013-06-23 10:53:00,54.0,54.0,-100.00,WSW,255,13.0,29.0,100,0.00,,,0.00,251.000000,,2013-06-23 17:53:00,
2013-06-23 11:01:00,54.0,54.0,-100.00,WSW,255,13.0,29.0,100,0.00,,,0.00,251.000000,,2013-06-23 18:01:00,
2013-06-23 11:34:00,57.0,56.0,-100.00,West,266,16.0,31.0,96,0.00,,,0.00,299.000000,,2013-06-23 18:34:00,
2013-06-23 11:43:00,57.0,56.0,-100.00,West,266,16.0,31.0,96,0.00,,,0.00,299.000000,,2013-06-23 18:43:00,
2013-06-23 11:53:00,57.0,56.0,-100.00,West,266,16.0,31.0,96,0.00,,,0.00,299.000000,,2013-06-23 18:53:00,
2013-06-23 12:01:00,57.0,56.0,-100.00,West,266,16.0,31.0,96,0.00,,,0.00,299.000000,,2013-06-23 19:01:00,
2013-06-23 12:32:00,59.0,55.0,-100.00,West,263,15.0,32.0,88,0.00,,,0.00,627.000000,,2013-06-23 19:32:00,
2013-06-23 12:43:00,59.0,55.0,-100.00,West,263,15.0,32.0,88,0.00,,,0.00,627.000000,,2013-06-23 19:43:00,
2013-06-23 12:53:00,59.0,55.0,-100.00,West,263,15.0,32.0,88,0.00,,,0.00,627.000000,,2013-06-23 19:53:00,
2013-06-23 13:01:00,59.0,55.0,-100.00,West,263,15.0,32.0,88,0.00,,,0.00,627.000000,,2013-06-23 20:01:00,
2013-06-23 13:34:00,57.0,55.0,-100.00,WSW,255,14.0,28.0,94,0.00,,,0.00,413.000000,,2013-06-23 20:34:00,
2013-06-23 13:42:00,57.0,55.0,-100.00,WSW,255,14.0,28.0,94,0.00,,,0.00,413.000000,,2013-06-23 20:42:00,
2013-06-23 13:53:00,57.0,55.0,-100.00,WSW,255,14.0,28.0,94,0.00,,,0.00,413.000000,,2013-06-23 20:53:00,
2013-06-23 14:01:00,57.0,55.0,-100.00,WSW,255,14.0,28.0,94,0.00,,,0.00,413.000000,,2013-06-23 21:01:00,
2013-06-23 14:22:00,58.0,56.0,-100.00,West,263,12.0,31.0,92,0.00,,,0.00,358.000000,,2013-06-23 21:22:00,
2013-06-23 14:34:00,58.0,56.0,-100.00,West,263,12.0,31.0,92,0.00,,,0.00,358.000000,,2013-06-23 21:34:00,
2013-06-23 14:44:00,58.0,56.0,-100.00,West,263,12.0,31.0,92,0.00,,,0.00,358.000000,,2013-06-23 21:44:00,
2013-06-23 14:52:00,58.0,56.0,-100.00,West,263,12.0,31.0,92,0.00,,,0.00,358.000000,,2013-06-23 21:52:00,
2013-06-23 15:01:00,58.0,56.0,-100.00,West,263,12.0,31.0,92,0.00,,,0.00,358.000000,,2013-06-23 22:01:00,
2013-06-23 15:22:00,60.0,57.0,-100.00,WSW,257,13.0,27.0,89,0.00,,,0.00,327.000000,,2013-06-23 22:22:00,
2013-06-23 15:32:00,60.0,57.0,-100.00,WSW,257,13.0,27.0,89,0.00,,,0.00,327.000000,,2013-06-23 22:32:00,
2013-06-23 15:43:00,60.0,57.0,-100.00,WSW,257,13.0,27.0,89,0.00,,,0.00,327.000000,,2013-06-23 22:43:00,
2013-06-23 15:53:00,60.0,57.0,-100.00,WSW,257,13.0,27.0,89,0.00,,,0.00,327.000000,,2013-06-23 22:53:00,
2013-06-23 16:01:00,60.0,57.0,-100.00,WSW,257,13.0,27.0,89,0.00,,,0.00,327.000000,,2013-06-23 23:01:00,
2013-06-23 16:33:00,59.0,57.0,-100.00,West,259,15.0,30.0,92,0.00,,,0.00,196.000000,,2013-06-23 23:33:00,
2013-06-23 16:44:00,59.0,57.0,-100.00,West,259,15.0,30.0,92,0.00,,,0.00,196.000000,,2013-06-23 23:44:00,
2013-06-23 16:52:00,59.0,57.0,-100.00,West,259,15.0,30.0,92,0.00,,,0.00,196.000000,,2013-06-23 23:52:00,
2013-06-23 17:01:00,59.0,57.0,-100.00,West,259,15.0,30.0,92,0.00,,,0.00,196.000000,,2013-06-24 00:01:00,
2013-06-23 17:33:00,60.0,58.0,-100.00,WSW,253,0.0,27.0,92,0.00,,,0.00,209.000000,,2013-06-24 00:33:00,
2013-06-23 17:42:00,60.0,58.0,-100.00,WSW,253,0.0,27.0,92,0.00,,,0.00,209.000000,,2013-06-24 00:42:00,
2013-06-23 17:52:00,60.0,58.0,-100.00,WSW,253,0.0,27.0,92,0.00,,,0.00,209.000000,,2013-06-24 00:52:00,
2013-06-23 18:01:00,60.0,58.0,-100.00,WSW,253,0.0,27.0,92,0.00,,,0.00,209.000000,,2013-06-24 01:01:00,
2013-06-23 18:32:00,61.0,57.0,-100.00,WSW,256,0.0,0.0,88,0.00,,,0.00,321.000000,,2013-06-24 01:32:00,
2013-06-23 18:42:00,61.0,57.0,-100.00,WSW,256,0.0,0.0,88,0.00,,,0.00,321.000000,,2013-06-24 01:42:00,
2013-06-23 18:53:00,61.0,57.0,-100.00,WSW,256,0.0,0.0,88,0.00,,,0.00,321.000000,,2013-06-24 01:53:00,
2013-06-23 19:01:00,61.0,57.0,-100.00,WSW,256,0.0,0.0,88,0.00,,,0.00,321.000000,,2013-06-24 02:01:00,
2013-06-23 19:33:00,60.0,57.0,-100.00,WSW,258,0.0,0.0,90,0.00,,,0.00,207.000000,,2013-06-24 02:33:00,
2013-06-23 19:42:00,60.0,57.0,-100.00,WSW,258,0.0,0.0,90,0.00,,,0.00,207.000000,,2013-06-24 02:42:00,
2013-06-23 19:53:00,60.0,57.0,-100.00,WSW,258,0.0,0.0,90,0.00,,,0.00,207.000000,,2013-06-24 02:53:00,
2013-06-23 20:01:00,60.0,57.0,-100.00,WSW,258,0.0,0.0,90,0.00,,,0.00,207.000000,,2013-06-24 03:01:00,
2013-06-23 20:33:00,57.0,56.0,-100.00,WSW,253,0.0,0.0,97,0.00,,,0.00,56.000000,,2013-06-24 03:33:00,
2013-06-23 20:43:00,57.0,56.0,-100.00,WSW,253,0.0,0.0,97,0.00,,,0.00,56.000000,,2013-06-24 03:43:00,
2013-06-23 20:53:00,57.0,56.0,-100.00,WSW,253,0.0,0.0,97,0.00,,,0.00,56.000000,,2013-06-24 03:53:00,
2013-06-23 21:01:00,57.0,56.0,-100.00,WSW,253,0.0,0.0,97,0.00,,,0.00,56.000000,,2013-06-24 04:01:00,
2013-06-23 21:02:00,57.0,57.0,-100.00,West,263,0.0,0.0,99,0.00,,,0.00,5.000000,,2013-06-24 04:02:00,
2013-06-23 21:22:00,57.0,57.0,-100.00,West,263,0.0,0.0,99,0.00,,,0.00,5.000000,,2013-06-24 04:22:00,
2013-06-23 21:33:00,57.0,57.0,-100.00,West,263,0.0,0.0,99,0.00,,,0.00,5.000000,,2013-06-24 04:33:00,
2013-06-23 21:43:00,57.0,57.0,-100.00,West,263,0.0,0.0,99,0.00,,,0.00,5.000000,,2013-06-24 04:43:00,
2013-06-23 21:53:00,57.0,57.0,-100.00,West,263,0.0,0.0,99,0.00,,,0.00,5.000000,,2013-06-24 04:53:00,
2013-06-23 22:02:00,57.0,57.0,-100.00,WSW,250,0.0,0.0,99,0.00,,,0.00,0.000000,,2013-06-24 05:02:00,
2013-06-23 22:22:00,57.0,57.0,-100.00,WSW,250,0.0,0.0,99,0.00,,,0.00,0.000000,,2013-06-24 05:22:00,
2013-06-23 22:38:00,57.0,57.0,-100.00,WSW,250,0.0,0.0,99,0.00,,,0.00,0.000000,,2013-06-24 05:38:00,
2013-06-23 22:46:00,57.0,57.0,-100.00,WSW,250,0.0,0.0,99,0.00,,,0.00,0.000000,,2013-06-24 05:46:00,
2013-06-23 22:53:00,57.0,57.0,-100.00,WSW,250,0.0,0.0,99,0.00,,,0.00,0.000000,,2013-06-24 05:53:00,
2013-06-23 23:02:00,56.0,56.0,-100.00,WSW,257,0.0,0.0,100,0.00,,,0.00,0.000000,,2013-06-24 06:02:00,
2013-06-23 23:39:00,56.0,56.0,-100.00,WSW,257,0.0,0.0,100,0.00,,,0.00,0.000000,,2013-06-24 06:39:00,
2013-06-23 23:45:00,56.0,56.0,-100.00,WSW,257,0.0,0.0,100,0.00,,,0.00,0.000000,,2013-06-24 06:45:00,